Time;durP1;ratioP1;P1;durP2;ratioP2;P2;SDS_P1;SDS_P2;PMS_P1;PMS_P2;Temp;Humidity;BMP_temperature;BMP_pressure;BME280_temperature;BME280_humidity;BME280_pressure;Samples;Min_cycle;Max_cycle;Signal;HPM_P1;HPM_P2
2023/02/11 00:02:28;;;;;;;;;147.67;112.33;;;;;-3.81;93.42;101563.09;6280805;20;3700415;-61
2023/02/11 00:05:00;;;;;;;;;143.00;108.67;;;;;-3.88;93.95;101561.16;6281934;20;3714872;-61
2023/02/11 00:07:32;;;;;;;;;127.67;101.67;;;;;-3.80;94.77;101557.00;6281562;20;3706508;-61
2023/02/11 00:10:03;;;;;;;;;134.67;98.33;;;;;-3.72;95.04;101558.94;6281062;20;3713788;-61
2023/02/11 00:12:34;;;;;;;;;117.00;86.67;;;;;-3.64;94.76;101552.16;6279448;20;3688790;-61
2023/02/11 00:15:08;;;;;;;;;124.00;97.67;;;;;-3.68;94.98;101545.06;6278396;20;3715971;-61
2023/02/11 00:17:37;;;;;;;;;123.33;105.33;;;;;-3.75;95.33;101547.50;6277831;20;3715911;-61
2023/02/11 00:20:08;;;;;;;;;132.67;101.33;;;;;-3.68;94.93;101550.31;6281441;20;3739957;-61
2023/02/11 00:22:38;;;;;;;;;126.33;94.67;;;;;-3.71;94.50;101547.59;6282183;20;3707659;-61
2023/02/11 00:25:08;;;;;;;;;123.33;98.33;;;;;-3.87;95.10;101539.31;6283659;20;3698197;-61
2023/02/11 00:27:37;;;;;;;;;124.67;97.67;;;;;-3.72;95.23;101532.69;6281099;20;3702406;-61
2023/02/11 00:30:09;;;;;;;;;136.00;104.33;;;;;-3.85;94.79;101537.59;6279999;20;3710762;-61
2023/02/11 00:32:38;;;;;;;;;135.00;106.33;;;;;-3.97;94.98;101532.06;6280385;20;3713142;-61
2023/02/11 00:35:08;;;;;;;;;130.17;107.67;;;;;-3.93;95.19;101526.03;6276284;20;4469112;-62
2023/02/11 00:37:38;;;;;;;;;133.33;101.67;;;;;-3.91;94.56;101516.47;6312263;20;3713862;-61
2023/02/11 00:40:09;;;;;;;;;124.33;97.17;;;;;-4.05;95.11;101516.09;6278143;20;4475274;-61
2023/02/11 00:42:38;;;;;;;;;130.67;98.00;;;;;-4.19;95.98;101520.06;6315046;20;3702423;-62
2023/02/11 00:45:09;;;;;;;;;144.67;114.67;;;;;-3.89;96.29;101535.75;6285245;20;3725288;-61
2023/02/11 00:47:38;;;;;;;;;128.67;91.00;;;;;-3.87;95.74;101539.31;6286767;20;3694029;-61
2023/02/11 00:50:08;;;;;;;;;121.33;102.00;;;;;-4.15;95.51;101531.53;6284391;20;3695206;-61
2023/02/11 00:52:38;;;;;;;;;130.67;98.00;;;;;-4.19;94.92;101530.53;6284480;20;3702446;-61
2023/02/11 00:55:08;;;;;;;;;115.00;92.67;;;;;-4.23;95.25;101529.59;6286298;20;3685767;-61
2023/02/11 00:57:38;;;;;;;;;119.33;91.00;;;;;-4.05;94.56;101538.81;6316834;20;3698202;-61
2023/02/11 01:00:12;;;;;;;;;132.00;91.00;;;;;-4.14;94.42;101533.31;6285276;20;3705498;-61
2023/02/11 01:02:42;;;;;;;;;117.33;92.00;;;;;-4.17;94.58;101517.50;6284195;20;3699231;-61
2023/02/11 01:05:12;;;;;;;;;116.00;95.00;;;;;-4.05;94.62;101523.09;6287371;20;3687865;-61
2023/02/11 01:07:42;;;;;;;;;111.67;87.00;;;;;-4.00;94.15;101514.50;6281891;20;3696085;-61
2023/02/11 01:10:12;;;;;;;;;116.33;92.33;;;;;-4.17;94.32;101507.00;6285716;20;3689829;-60
2023/02/11 01:12:42;;;;;;;;;117.00;90.67;;;;;-4.17;94.35;101499.13;6282838;20;3700262;-61
2023/02/11 01:15:16;;;;;;;;;105.00;71.17;;;;;-4.27;94.50;101496.25;6282885;20;3685739;-61
2023/02/11 01:17:46;;;;;;;;;114.67;85.00;;;;;-4.46;95.24;101499.19;6316179;20;3685675;-60
2023/02/11 01:20:25;;;;;;;;;130.00;99.00;;;;;-4.59;95.85;101492.72;6282851;20;3722220;-61
2023/02/11 01:22:54;;;;;;;;;118.67;87.33;;;;;-4.82;96.69;101491.13;6284834;20;3693418;-61
2023/02/11 01:25:24;;;;;;;;;116.33;85.67;;;;;-4.83;97.43;101485.00;6283515;20;3694015;-60
2023/02/11 01:27:54;;;;;;;;;100.33;72.33;;;;;-4.68;96.92;101477.63;6317856;20;3673187;-60
2023/02/11 01:30:24;;;;;;;;;114.33;85.00;;;;;-4.75;96.99;101480.88;6316036;20;3686728;-60
2023/02/11 01:32:53;;;;;;;;;129.67;99.00;;;;;-4.48;97.05;101475.53;6284302;20;3710697;-60
2023/02/11 01:35:23;;;;;;;;;133.33;105.67;;;;;-4.37;97.66;101478.50;6284979;20;3715942;-61
2023/02/11 01:37:53;;;;;;;;;124.33;100.00;;;;;-4.29;97.84;101476.97;6286079;20;3712774;-61
2023/02/11 01:40:22;;;;;;;;;130.00;94.00;;;;;-4.12;97.44;101471.28;6284859;20;3696073;-60
2023/02/11 01:42:52;;;;;;;;;120.00;90.33;;;;;-4.07;97.10;101474.94;6282519;20;3696147;-62
2023/02/11 01:45:45;;;;;;;;;124.67;98.67;;;;;-3.90;96.79;101475.38;6282733;20;3701376;-61
2023/02/11 01:48:33;;;;;;;;;133.00;105.00;;;;;-4.11;96.63;101471.31;6283852;20;3724259;-61
2023/02/11 01:51:27;;;;;;;;;139.00;99.00;;;;;-4.07;96.92;101467.06;6273297;20;3706606;-62
2023/02/11 02:00:10;;;;;;;;;116.33;90.33;;;;;-3.56;95.62;101461.34;6281354;20;3692941;-61
2023/02/11 02:03:18;;;;;;;;;133.67;106.00;;;;;-3.65;95.89;101461.16;6280248;20;3698239;-61
2023/02/11 02:05:59;;;;;;;;;97.00;66.00;;;;;-3.59;96.02;101466.53;6281552;20;3656638;-61
2023/02/11 02:08:51;;;;;;;;;130.33;103.33;;;;;-3.52;95.93;101460.59;6281873;20;3706657;-61
2023/02/11 02:11:22;;;;;;;;;118.67;91.00;;;;;-3.67;96.47;101463.72;6281189;20;3686784;-61
2023/02/11 02:13:52;;;;;;;;;140.33;102.33;;;;;-3.69;96.45;101467.16;6277700;20;3711837;-60
2023/02/11 02:16:34;;;;;;;;;136.67;104.33;;;;;-3.58;96.61;101463.06;6284011;20;3711710;-60
2023/02/11 02:20:15;;;;;;;;;127.67;93.33;;;;;-3.69;96.14;101454.03;6281256;20;3693496;-61
2023/02/11 02:23:26;;;;;;;;;121.33;102.67;;;;;-3.62;96.07;101455.97;6276495;20;3691925;-60
2023/02/11 02:26:52;;;;;;;;;118.33;97.67;;;;;-3.70;96.23;101460.16;6283398;20;3691943;-61
2023/02/11 02:29:36;;;;;;;;;118.33;94.00;;;;;-3.62;96.25;101462.09;6278876;20;3732532;-61
2023/02/11 02:32:59;;;;;;;;;120.00;95.67;;;;;-3.53;95.99;101466.69;6280028;20;3705561;-61
2023/02/11 02:35:58;;;;;;;;;118.33;93.67;;;;;-3.70;96.36;101462.75;6283030;20;3702320;-61
2023/02/11 02:38:53;;;;;;;;;116.67;88.00;;;;;-3.65;96.39;101455.91;6279091;20;3700037;-61
2023/02/11 02:41:34;;;;;;;;;115.67;93.67;;;;;-3.67;96.44;101450.59;6309978;20;3689827;-61
2023/02/11 02:44:04;;;;;;;;;123.33;92.67;;;;;-3.56;95.76;101453.47;6281131;20;3697664;-61
2023/02/11 02:46:36;;;;;;;;;119.00;91.00;;;;;-3.73;95.90;101446.94;6282358;20;3637763;-61
2023/02/11 02:49:16;;;;;;;;;128.67;99.67;;;;;-3.89;95.73;101446.56;6280206;20;3713821;-61
2023/02/11 02:51:54;;;;;;;;;126.33;94.67;;;;;-4.01;96.04;101447.13;6284434;20;3698238;-61
2023/02/11 02:54:54;;;;;;;;;118.33;96.67;;;;;-3.90;96.49;101441.25;6279814;20;3698201;-61
2023/02/11 02:57:53;;;;;;;;;117.33;84.00;;;;;-3.87;96.16;101439.63;6281257;20;3697637;-61
2023/02/11 03:00:58;;;;;;;;;120.33;92.67;;;;;-4.00;95.81;101437.53;6279328;20;3684612;-61
2023/02/11 03:04:09;;;;;;;;;132.67;97.33;;;;;-4.30;97.25;101428.00;6280198;20;3709657;-61
2023/02/11 03:07:12;;;;;;;;;135.33;100.00;;;;;-4.23;97.55;101436.91;6282309;20;3716938;-61
2023/02/11 03:10:02;;;;;;;;;115.67;92.00;;;;;-4.29;96.87;101440.28;6284181;20;3677355;-61
2023/02/11 03:12:34;;;;;;;;;141.00;100.00;;;;;-4.27;96.67;101433.31;6280094;20;3707583;-61
2023/02/11 03:15:06;;;;;;;;;123.33;91.00;;;;;-4.32;96.80;101440.16;6280686;20;3699344;-61
2023/02/11 03:17:42;;;;;;;;;153.00;117.83;;;;;-4.24;97.00;101437.75;6279715;20;4481565;-61
2023/02/11 03:20:17;;;;;;;;;131.67;104.00;;;;;-4.11;97.23;101438.97;6310947;20;3698182;-61
2023/02/11 03:23:12;;;;;;;;;120.67;95.33;;;;;-4.09;97.35;101432.03;6281505;20;3688867;-61
2023/02/11 03:26:12;;;;;;;;;117.00;93.67;;;;;-4.08;97.54;101423.31;6278926;20;3696107;-61
2023/02/11 03:28:58;;;;;;;;;117.00;89.00;;;;;-3.88;97.49;101429.94;6277306;20;3696179;-61
2023/02/11 03:31:41;;;;;;;;;118.00;89.67;;;;;-3.80;96.91;101420.53;6280029;20;3692988;-61
2023/02/11 03:34:41;;;;;;;;;118.33;95.33;;;;;-3.66;96.44;101422.59;6279544;20;3692944;-60
2023/02/11 03:37:30;;;;;;;;;111.00;82.67;;;;;-3.62;96.32;101420.09;6278389;20;3686729;-61
2023/02/11 03:40:14;;;;;;;;;125.00;94.00;;;;;-3.60;96.28;101417.53;6313013;20;3700281;-61
2023/02/11 03:43:06;;;;;;;;;121.00;91.00;;;;;-3.66;96.28;101405.16;6280937;20;3695070;-61
2023/02/11 03:45:38;;;;;;;;;125.00;91.67;;;;;-3.59;96.16;101406.16;6278882;20;3698177;-61
2023/02/11 03:48:37;;;;;;;;;128.67;93.33;;;;;-3.67;96.35;101400.72;6277593;20;3704457;-61
2023/02/11 03:51:11;;;;;;;;;118.33;95.00;;;;;-3.69;96.28;101391.91;6276400;20;3703402;-61
2023/02/11 03:53:44;;;;;;;;;112.67;87.00;;;;;-3.77;96.30;101391.75;6277977;20;3685740;-61
2023/02/11 03:56:22;;;;;;;;;118.00;88.00;;;;;-3.70;96.04;101386.66;6310353;20;3697213;-61
2023/02/11 03:58:52;;;;;;;;;109.67;78.00;;;;;-3.92;96.61;101375.66;6280282;20;3670193;-61
2023/02/11 04:01:22;;;;;;;;;118.00;91.67;;;;;-3.98;96.67;101372.84;6307479;20;3690914;-61
2023/02/11 04:03:52;;;;;;;;;116.33;89.67;;;;;-4.06;96.48;101370.03;6279679;20;3696085;-61
2023/02/11 04:06:22;;;;;;;;;115.00;83.00;;;;;-4.24;96.44;101372.19;6279532;20;3690965;-61
2023/02/11 04:08:50;;;;;;;;;129.67;100.33;;;;;-4.38;96.84;101363.09;6306815;20;3702355;-61
2023/02/11 04:11:20;;;;;;;;;102.67;72.33;;;;;-4.27;96.92;101364.25;6309946;20;3682616;-61
2023/02/11 04:13:50;;;;;;;;;113.67;90.67;;;;;-4.42;97.48;101364.75;6314376;20;3695100;-61
2023/02/11 04:16:20;;;;;;;;;107.33;78.00;;;;;-4.47;97.72;101362.00;6277995;20;3680511;-61
2023/02/11 04:18:49;;;;;;;;;116.33;87.67;;;;;-4.43;97.18;101357.72;6279279;20;3689958;-61
2023/02/11 04:21:19;;;;;;;;;116.67;88.67;;;;;-4.53;97.86;101355.69;6284677;20;3693142;-61
2023/02/11 04:23:49;;;;;;;;;111.00;86.67;;;;;-4.27;97.24;101357.25;6285088;20;3680449;-61
2023/02/11 04:26:18;;;;;;;;;115.33;79.67;;;;;-4.78;97.96;101355.06;6282515;20;3687763;-61
2023/02/11 04:28:48;;;;;;;;;112.33;88.00;;;;;-4.82;98.84;101352.28;6317896;20;3687878;-61
2023/02/11 04:31:18;;;;;;;;;112.67;83.67;;;;;-4.74;98.69;101335.97;6284589;20;3678401;-61
2023/02/11 04:33:48;;;;;;;;;117.33;93.67;;;;;-4.49;98.87;101337.47;6316649;20;3688823;-64
2023/02/11 04:36:17;;;;;;;;;117.33;89.67;;;;;-4.74;98.62;101338.59;6319391;20;3691988;-61
2023/02/11 04:38:47;;;;;;;;;117.67;87.67;;;;;-4.77;98.99;101330.63;6282257;20;3696246;-61
2023/02/11 04:41:17;;;;;;;;;120.67;94.00;;;;;-4.69;98.74;101326.47;6281379;20;3699259;-61
2023/02/11 04:43:46;;;;;;;;;111.67;87.33;;;;;-4.49;98.74;101331.38;6286833;20;3691943;-61
2023/02/11 04:46:16;;;;;;;;;122.33;88.00;;;;;-4.76;98.32;101329.78;6281696;20;3687875;-60
2023/02/11 04:48:46;;;;;;;;;114.33;80.67;;;;;-4.60;98.61;101327.59;6285147;20;3669028;-60
2023/02/11 04:51:16;;;;;;;;;123.00;87.33;;;;;-4.58;98.69;101325.88;6317198;20;3697140;-61
2023/02/11 04:53:45;;;;;;;;;114.00;91.67;;;;;-4.26;98.31;101329.34;6282969;20;3698221;-61
2023/02/11 04:56:15;;;;;;;;;103.33;74.00;;;;;-4.17;98.09;101323.44;6283925;20;3675363;-60
2023/02/11 04:58:45;;;;;;;;;118.33;85.00;;;;;-4.05;97.53;101329.88;6317873;20;3690959;-61
2023/02/11 05:01:16;;;;;;;;;105.67;80.33;;;;;-4.18;97.57;101327.78;6279621;20;2911844;-61
2023/02/11 05:03:45;;;;;;;;;113.33;83.67;;;;;-4.14;97.55;101333.97;6318744;20;3684610;-61
2023/02/11 05:06:15;;;;;;;;;108.33;78.33;;;;;-4.03;97.12;101335.13;6284955;20;3673246;-61
2023/02/11 05:08:45;;;;;;;;;107.67;76.33;;;;;-4.03;97.06;101332.50;6316936;20;3695119;-62
2023/02/11 05:11:22;;;;;;;;;111.00;85.67;;;;;-4.12;97.18;101338.41;6281974;20;3676406;-61
2023/02/11 05:13:52;;;;;;;;;117.00;87.67;;;;;-4.12;97.28;101346.28;6316952;20;3699333;-61
2023/02/11 05:16:22;;;;;;;;;119.33;84.00;;;;;-4.35;97.48;101340.47;6283176;20;3691992;-61
2023/02/11 05:18:54;;;;;;;;;102.00;69.33;;;;;-4.27;98.14;101344.16;6315419;20;3668976;-61
2023/02/11 05:21:24;;;;;;;;;119.33;88.00;;;;;-4.38;98.72;101350.88;6316037;20;3684674;-61
2023/02/11 05:23:54;;;;;;;;;117.00;88.67;;;;;-4.25;98.60;101342.47;6282267;20;3692972;-60
2023/02/11 05:26:23;;;;;;;;;115.00;84.33;;;;;-4.30;99.25;101349.31;6285161;20;3685685;-61
2023/02/11 05:28:53;;;;;;;;;114.67;93.67;;;;;-4.26;99.16;101345.06;6315277;20;3675241;-61
2023/02/11 05:31:23;;;;;;;;;115.33;82.67;;;;;-4.23;99.35;101363.50;6316993;20;3680457;-61
2023/02/11 05:33:52;;;;;;;;;111.67;78.33;;;;;-4.23;99.57;101367.00;6283709;20;3675235;-61
2023/02/11 05:36:22;;;;;;;;;123.33;87.00;;;;;-3.99;99.44;101356.22;6315440;20;3692096;-61
2023/02/11 05:38:52;;;;;;;;;126.33;87.67;;;;;-4.04;99.40;101346.47;6283044;20;3712786;-61
2023/02/11 05:41:21;;;;;;;;;129.67;87.67;;;;;-4.13;99.41;101343.63;6281931;20;3696099;-60
2023/02/11 05:43:51;;;;;;;;;118.67;86.00;;;;;-3.97;99.44;101344.03;6285011;20;3689863;-61
2023/02/11 05:46:21;;;;;;;;;124.00;94.33;;;;;-4.08;99.62;101337.66;6283574;20;3703433;-61
2023/02/11 05:48:51;;;;;;;;;115.67;92.67;;;;;-3.99;99.53;101334.38;6284710;20;3687856;-61
2023/02/11 05:51:21;;;;;;;;;107.00;79.67;;;;;-4.00;99.73;101335.22;6281196;20;3672144;-63
2023/02/11 05:53:50;;;;;;;;;111.67;81.67;;;;;-4.09;99.45;101330.63;6315778;20;3670061;-61
2023/02/11 05:56:20;;;;;;;;;112.00;82.00;;;;;-4.29;100.00;101338.00;6315930;20;3690929;-62
2023/02/11 05:58:50;;;;;;;;;119.00;92.33;;;;;-4.24;100.00;101325.91;6282115;20;3701326;-61
2023/02/11 06:01:19;;;;;;;;;120.33;91.00;;;;;-4.12;99.73;101327.06;6277024;20;3695148;-61
2023/02/11 06:03:50;;;;;;;;;114.00;87.67;;;;;-4.19;98.65;101320.75;6282132;20;3683649;-62
2023/02/11 06:06:20;;;;;;;;;118.00;94.00;;;;;-4.42;98.81;101331.56;6278884;20;3695107;-62
2023/02/11 06:08:49;;;;;;;;;120.67;96.33;;;;;-4.26;98.73;101330.22;6285384;20;3708694;-61
2023/02/11 06:11:19;;;;;;;;;128.67;87.00;;;;;-4.29;98.82;101331.84;6280327;20;3685980;-61
2023/02/11 06:13:50;;;;;;;;;114.67;90.33;;;;;-4.22;98.00;101331.16;6284088;20;3695250;-62
2023/02/11 06:16:20;;;;;;;;;117.67;88.00;;;;;-3.98;97.33;101329.16;6280847;20;3694113;-61
2023/02/11 06:18:50;;;;;;;;;118.67;97.67;;;;;-4.12;96.56;101329.66;6280421;20;3699253;-62
2023/02/11 06:21:19;;;;;;;;;121.33;97.00;;;;;-3.77;96.76;101335.75;6280229;20;3693027;-62
2023/02/11 06:23:49;;;;;;;;;115.33;91.33;;;;;-3.71;96.55;101340.25;6283381;20;3681617;-62
2023/02/11 06:26:22;;;;;;;;;133.67;103.67;;;;;-3.25;95.69;101338.66;6282474;20;3699247;-62
2023/02/11 06:28:52;;;;;;;;;147.50;116.50;;;;;-2.96;95.12;101339.25;6285847;20;3723270;-62
2023/02/11 06:31:22;;;;;;;;;125.00;107.00;;;;;-1.68;91.21;101337.13;6278506;20;3704494;-61
2023/02/11 06:33:53;;;;;;;;;112.67;86.33;;;;;-1.23;86.67;101339.50;6285245;20;3690991;-62
2023/02/11 06:36:24;;;;;;;;;123.33;103.67;;;;;-0.94;84.02;101336.38;6284009;20;3708576;-63
2023/02/11 06:38:54;;;;;;;;;120.00;100.67;;;;;-0.99;83.72;101332.78;6284924;20;3680457;-63
2023/02/11 06:41:24;;;;;;;;;122.67;102.33;;;;;-1.23;85.27;101320.19;6280098;20;3698167;-62
2023/02/11 06:43:54;;;;;;;;;126.33;98.33;;;;;-1.09;84.17;101315.97;6282270;20;3691917;-63
2023/02/11 06:46:24;;;;;;;;;119.67;106.33;;;;;-1.29;85.72;101321.00;6284146;20;3701304;-62
2023/02/11 06:48:54;;;;;;;;;150.25;114.75;;;;;-1.03;84.62;101325.69;6283855;20;3725281;-62
2023/02/11 06:51:25;;;;;;;;;170.00;131.00;;;;;-0.69;83.25;101327.84;6278753;20;4474228;-62
2023/02/11 06:53:55;;;;;;;;;146.67;117.67;;;;;-0.40;82.27;101318.47;6281947;20;3717964;-62
2023/02/11 06:56:26;;;;;;;;;136.75;111.25;;;;;-0.22;79.94;101322.16;6282190;20;3726289;-63
2023/02/11 06:58:56;;;;;;;;;123.00;102.00;;;;;0.57;77.04;101320.97;6313111;20;3690904;-62
2023/02/11 07:01:27;;;;;;;;;117.67;99.67;;;;;0.86;75.03;101321.09;6283003;20;3689917;-62
2023/02/11 07:03:57;;;;;;;;;144.33;116.33;;;;;1.23;71.81;101320.38;6280212;20;3716991;-62
2023/02/11 07:06:27;;;;;;;;;280.00;223.67;;;;;1.95;69.78;101313.44;6283544;20;3700343;-62
2023/02/11 07:08:56;;;;;;;;;198.00;161.75;;;;;2.47;66.37;101311.59;6283408;20;4479394;-62
2023/02/11 07:11:30;;;;;;;;;133.00;110.50;;;;;2.66;65.25;101305.38;6312383;20;4489884;-62
2023/02/11 07:14:09;;;;;;;;;108.00;92.67;;;;;2.32;66.66;101308.09;6282925;20;3666937;-62
2023/02/11 07:16:39;;;;;;;;;125.00;99.00;;;;;2.30;66.43;101309.84;6279669;20;3702387;-62
2023/02/11 07:19:10;;;;;;;;;137.00;107.50;;;;;2.33;66.83;101308.97;6281910;20;3721214;-62
2023/02/11 07:21:37;;;;;;;;;134.50;108.50;;;;;2.15;67.64;101310.75;6311204;20;1958639;-62
2023/02/11 07:24:09;;;;;;;;;141.25;116.75;;;;;2.24;68.63;101304.56;6279010;20;4496135;-62
2023/02/11 07:26:38;;;;;;;;;165.50;125.50;;;;;2.58;67.55;101304.47;6277576;20;1949536;-62
2023/02/11 07:29:07;;;;;;;;;100.00;89.00;;;;;1.25;71.00;101310.69;6280307;20;3666980;-62
2023/02/11 07:31:38;;;;;;;;;130.75;103.50;;;;;0.59;74.62;101313.94;6308569;20;4488880;-62
2023/02/11 07:34:10;;;;;;;;;123.33;99.67;;;;;0.67;76.19;101313.09;6280856;20;3703587;-62
2023/02/11 07:36:42;;;;;;;;;137.00;109.25;;;;;0.10;78.74;101308.31;6279776;20;3731523;-62
2023/02/11 07:39:12;;;;;;;;;106.00;95.67;;;;;0.02;81.36;101312.66;6281603;20;3679530;-62
2023/02/11 07:41:43;;;;;;;;;112.00;89.00;;;;;0.63;80.15;101312.19;6281619;20;3702537;-62
2023/02/11 07:44:13;;;;;;;;;104.00;84.00;;;;;1.19;74.92;101313.31;6277789;20;3697309;-62
2023/02/11 07:46:44;;;;;;;;;101.00;77.33;;;;;0.44;78.13;101305.91;6283376;20;3690912;-63
2023/02/11 07:49:14;;;;;;;;;103.67;79.00;;;;;0.02;80.84;101302.09;6281966;20;3687732;-62
2023/02/11 07:51:44;;;;;;;;;102.33;79.00;;;;;0.00;83.11;101295.97;6279112;20;3686066;-60
2023/02/11 07:54:14;;;;;;;;;103.00;81.00;;;;;0.25;82.10;101294.34;6281554;20;3685754;-63
2023/02/11 07:56:44;;;;;;;;;110.33;83.00;;;;;0.27;82.51;101291.75;6284770;20;3703366;-62
2023/02/11 07:59:14;;;;;;;;;99.00;76.33;;;;;-0.06;82.41;101295.88;6281638;20;3658603;-62
2023/02/11 08:01:44;;;;;;;;;118.33;92.33;;;;;-0.24;84.90;101299.25;6315830;20;3684713;-62
2023/02/11 08:04:14;;;;;;;;;104.33;82.00;;;;;-0.10;84.39;101296.75;6283402;20;3696078;-62
2023/02/11 08:06:43;;;;;;;;;121.67;101.00;;;;;-0.17;83.42;101294.94;6283541;20;3708596;-62
2023/02/11 08:09:16;;;;;;;;;112.67;90.33;;;;;0.18;83.60;101290.78;6280863;20;3692974;-62
2023/02/11 08:11:46;;;;;;;;;104.33;88.00;;;;;0.36;82.69;101294.41;6280674;20;3696117;-62
2023/02/11 08:14:15;;;;;;;;;111.67;96.33;;;;;0.84;81.34;101295.53;6282811;20;3683634;-62
2023/02/11 08:16:46;;;;;;;;;123.25;96.75;;;;;0.89;80.17;101304.38;6280251;20;3705574;-62
2023/02/11 08:19:17;;;;;;;;;117.75;102.00;;;;;1.00;80.17;101294.75;6279524;20;3710680;-62
2023/02/11 08:21:46;;;;;;;;;107.33;84.67;;;;;0.90;79.88;101290.28;6277758;20;3702779;-62
2023/02/11 08:24:16;;;;;;;;;103.00;88.67;;;;;0.62;81.88;101284.00;6278473;20;3689908;-62
2023/02/11 08:26:46;;;;;;;;;95.00;71.67;;;;;1.27;80.21;101279.81;6281098;20;3662861;-62
2023/02/11 08:29:17;;;;;;;;;94.00;70.00;;;;;0.87;80.54;101279.72;6312597;20;3664870;-62
2023/02/11 08:31:47;;;;;;;;;98.67;76.67;;;;;1.44;78.79;101293.94;6281801;20;3681500;-62
2023/02/11 08:34:18;;;;;;;;;97.67;76.33;;;;;1.59;77.66;101286.94;6279874;20;3667950;-62
2023/02/11 08:36:48;;;;;;;;;99.67;76.67;;;;;1.52;75.43;101286.91;6283226;20;3694012;-62
2023/02/11 08:39:21;;;;;;;;;101.00;83.00;;;;;2.02;74.46;101281.63;6280070;20;3680621;-62
2023/02/11 08:41:55;;;;;;;;;158.75;135.25;;;;;2.54;72.30;101294.78;6278772;20;4507540;-62
2023/02/11 08:44:25;;;;;;;;;120.50;97.00;;;;;2.74;70.36;101292.97;6280356;20;2812963;-61
2023/02/11 08:46:55;;;;;;;;;93.00;74.33;;;;;2.10;71.33;101286.03;6311483;20;3660666;-62
2023/02/11 08:49:24;;;;;;;;;86.33;65.33;;;;;2.34;70.32;101287.78;6280659;20;3638786;-61
2023/02/11 08:51:55;;;;;;;;;88.00;66.33;;;;;2.65;70.62;101290.34;6311364;20;3631528;-62
2023/02/11 08:54:24;;;;;;;;;80.33;62.33;;;;;2.51;68.45;101286.84;6311927;20;3639852;-61
2023/02/11 08:56:54;;;;;;;;;84.33;62.00;;;;;2.12;69.53;101291.34;6311378;20;3645139;-61
2023/02/11 08:59:24;;;;;;;;;75.67;61.33;;;;;1.98;69.96;101289.59;6306108;20;2871140;-60
2023/02/11 09:01:53;;;;;;;;;88.67;66.33;;;;;1.90;70.66;101287.84;6313012;20;3641031;-62
2023/02/11 09:04:24;;;;;;;;;87.00;66.33;;;;;2.16;70.56;101279.88;6311470;20;3656668;-61
2023/02/11 09:06:54;;;;;;;;;90.33;65.33;;;;;1.88;70.81;101279.00;6316512;20;3667995;-62
2023/02/11 09:09:23;;;;;;;;;87.67;65.00;;;;;1.61;71.07;101277.22;6317760;20;3644092;-61
2023/02/11 09:11:56;;;;;;;;;86.67;65.00;;;;;1.78;71.43;101274.59;6317995;20;3657632;-61
2023/02/11 09:14:26;;;;;;;;;85.67;64.67;;;;;1.46;70.46;101273.66;6315168;20;3657595;-62
2023/02/11 09:16:56;;;;;;;;;86.67;66.00;;;;;1.71;71.04;101271.03;6311462;20;3650379;-62
2023/02/11 09:19:26;;;;;;;;;87.00;67.67;;;;;1.77;70.91;101276.34;6314998;20;3635685;-62
2023/02/11 09:21:55;;;;;;;;;84.67;65.00;;;;;1.60;70.65;101272.81;6317867;20;3630573;-61
2023/02/11 09:24:25;;;;;;;;;84.00;65.33;;;;;1.97;69.84;101269.28;6313602;20;3658599;-62
2023/02/11 09:26:54;;;;;;;;;84.67;65.67;;;;;2.30;66.70;101262.16;6318470;20;2879607;-61
2023/02/11 09:29:24;;;;;;;;;84.00;65.00;;;;;1.98;68.74;101264.88;6316139;20;3631499;-62
2023/02/11 09:31:56;;;;;;;;;92.33;68.00;;;;;1.79;69.09;101261.34;6316159;20;3661696;-61
2023/02/11 09:34:26;;;;;;;;;81.33;56.33;;;;;1.71;69.02;101266.66;6314290;20;2885835;-62
2023/02/11 09:36:56;;;;;;;;;95.67;68.67;;;;;2.22;69.00;101258.66;6318697;20;3669027;-62
2023/02/11 09:39:26;;;;;;;;;93.00;71.00;;;;;2.44;68.26;101253.28;6281877;20;3661714;-62
2023/02/11 09:42:11;;;;;;;;;97.67;79.00;;;;;2.32;68.37;101249.78;6319514;20;3680473;-62
2023/02/11 09:44:44;;;;;;;;;93.33;74.33;;;;;3.27;66.16;101249.34;6281811;20;3680493;-62
2023/02/11 09:47:42;;;;;;;;;93.00;73.33;;;;;3.38;65.36;101246.63;6282276;20;3672250;-60
2023/02/11 09:50:28;;;;;;;;;103.33;85.67;;;;;3.80;64.54;101248.97;6283925;20;3692984;-60
2023/02/11 09:53:24;;;;;;;;;87.75;67.00;;;;;4.70;61.35;101247.13;6286711;20;3652399;-60
2023/02/11 09:56:13;;;;;;;;;92.67;72.00;;;;;4.00;62.86;101248.78;6316491;20;3663875;-61
2023/02/11 09:58:44;;;;;;;;;80.33;63.00;;;;;4.09;63.20;101248.69;6280814;20;2879679;-60
2023/02/11 10:01:33;;;;;;;;;87.67;62.33;;;;;3.65;63.03;101261.47;6315428;20;3651404;-62
2023/02/11 10:04:47;;;;;;;;;92.67;67.00;;;;;3.66;63.83;101251.72;6280340;20;3663936;-62
2023/02/11 10:07:33;;;;;;;;;95.33;72.33;;;;;3.94;64.00;101250.59;6283423;20;3675322;-62
2023/02/11 10:10:57;;;;;;;;;92.50;70.50;;;;;3.82;63.54;101250.72;6278963;20;2703501;-62
2023/02/11 10:14:26;;;;;;;;;88.00;68.00;;;;;4.00;63.46;101247.00;6311677;20;3671134;-62
2023/02/11 10:18:02;;;;;;;;;89.33;66.33;;;;;3.99;63.74;101239.94;6278986;20;3657550;-62
2023/02/11 10:20:53;;;;;;;;;76.00;61.00;;;;;4.12;62.42;101235.38;6278786;20;2863852;-62
2023/02/11 10:23:32;;;;;;;;;84.33;62.67;;;;;4.16;62.52;101237.09;6281317;20;3645109;-62
2023/02/11 10:26:02;;;;;;;;;89.00;66.25;;;;;4.17;61.56;101244.19;6316171;20;3650318;-62
2023/02/11 10:28:38;;;;;;;;;88.33;68.33;;;;;4.11;63.13;101239.81;6312171;20;3658645;-62
2023/02/11 10:31:39;;;;;;;;;81.33;58.00;;;;;4.06;62.76;101225.69;6276366;20;3667961;-63
2023/02/11 10:34:14;;;;;;;;;89.33;64.00;;;;;4.66;62.07;101229.44;6309151;20;3656583;-63
2023/02/11 10:36:45;;;;;;;;;86.33;67.00;;;;;4.53;62.58;101215.41;6310431;20;3648194;-62
2023/02/11 10:39:22;;;;;;;;;85.67;63.00;;;;;4.29;62.05;101208.59;6315430;20;3644057;-61
2023/02/11 10:42:08;;;;;;;;;84.33;66.67;;;;;4.45;62.85;101210.22;6317788;20;3624233;-60
2023/02/11 10:44:59;;;;;;;;;81.67;60.67;;;;;4.61;64.31;101197.59;6282678;20;3649202;-62
2023/02/11 10:47:38;;;;;;;;;75.33;58.67;;;;;4.48;62.29;101202.19;6316503;20;3626251;-61
2023/02/11 10:50:27;;;;;;;;;84.00;63.67;;;;;4.33;62.16;101195.25;6311886;20;3621087;-61
2023/02/11 10:53:19;;;;;;;;;81.33;59.67;;;;;4.11;63.00;101181.34;6312381;20;3655454;-61
2023/02/11 10:55:56;;;;;;;;;88.67;64.67;;;;;4.27;61.28;101186.50;6316930;20;3646569;-61
2023/02/11 10:58:44;;;;;;;;;87.67;65.00;;;;;4.94;61.52;101185.59;6314155;20;3643418;-61
2023/02/11 11:01:13;;;;;;;;;87.00;65.00;;;;;5.16;59.59;101185.28;6308562;20;3646132;-61
2023/02/11 11:03:53;;;;;;;;;83.33;62.33;;;;;5.81;59.22;101171.78;6315065;20;3652395;-61
2023/02/11 11:06:32;;;;;;;;;85.00;64.67;;;;;5.38;58.92;101165.41;6279717;20;3640895;-61
2023/02/11 11:09:03;;;;;;;;;76.33;59.00;;;;;5.05;60.24;101170.38;6311481;20;3637995;-61
2023/02/11 11:11:34;;;;;;;;;83.33;61.00;;;;;5.09;59.22;101157.88;6316578;20;3629491;-61
2023/02/11 11:14:03;;;;;;;;;82.00;62.33;;;;;4.79;60.09;101161.88;6310371;20;3635685;-61
2023/02/11 11:16:36;;;;;;;;;76.33;58.33;;;;;4.85;60.52;101151.16;6312187;20;3633642;-61
2023/02/11 11:19:08;;;;;;;;;73.00;55.00;;;;;4.51;60.45;101146.28;6311797;20;3624235;-61
2023/02/11 11:21:52;;;;;;;;;70.67;53.67;;;;;4.72;59.57;101146.91;6316218;20;3631506;-61
2023/02/11 11:24:44;;;;;;;;;82.67;56.67;;;;;4.97;58.76;101134.09;6310645;20;3660745;-61
2023/02/11 11:27:23;;;;;;;;;79.00;58.00;;;;;5.24;58.61;101124.81;6279302;20;3652361;-61
2023/02/11 11:29:55;;;;;;;;;78.33;58.00;;;;;5.31;57.21;101123.81;6313167;20;2872290;-61
2023/02/11 11:32:35;;;;;;;;;76.33;57.00;;;;;5.57;56.93;101119.81;6313383;20;3634382;-61
2023/02/11 11:35:28;;;;;;;;;75.67;57.33;;;;;5.54;57.25;101114.53;6309432;20;3631590;-61